Impacts TAF Board
For situational awareness. Not to be used for flight planning purposes.
IDs:

KSEA - Seattle-Tacoma Intl, WA, US

Issued at 1144 UTC 15 Jul 2020
Updated at 1223 UTC 15 Jul 2020
Potential Impact None Slight Moderate High
Time<<16/01Z 16/02Z 16/03Z 16/04Z 16/05Z 16/06Z 16/07Z 16/08Z 16/09Z 16/10Z 16/11Z 16/12Z 16/13Z>>
Type PRVL PRVL PRVL PRVL PRVL PRVL PRVL PRVL PRVL PRVL PRVL PRVL
  [TEMP]  
PRVL
  [TEMP]  
VIS >6 >6 >6 >6 >6 >6 >6 >6 >6 >6 >6 >6
  [6.21]  
>6
  [6.21]  
CIG -- -- -- -- -- -- -- -- -- -- -- --
  [20]  
--
  [20]  
Cover SCT SCT FEW FEW FEW SCT SCT SCT SCT SCT SCT SCT
  [BKN]  
SCT
  [BKN]  
FltCat VFR VFR VFR VFR VFR VFR VFR VFR VFR VFR VFR VFR
  [MVFR]  
VFR
  [MVFR]  
WX -- -- -- -- -- -- -- -- -- -- -- --
  [--]  
--
  [--]  
WDir 310 310 320 320 320 30 30 30 30 30 30 200
[200]
200
[200]
WSpd 8 8 3 3 3 5 5 5 5 5 5 6
  [6]  
6
  [6]  
WGst -- -- -- -- -- -- -- -- -- -- -- --
  [--]  
--
  [--]  
Raw TAF
KSEA 151144Z 1512/1618 02006KT P6SM SKC
  FM151800 VRB04KT P6SM SKC
  FM152000 31008KT P6SM SCT100
  FM160300 32003KT P6SM FEW120
  FM160600 03005KT P6SM SCT080
  FM161200 20006KT P6SM SCT030
  TEMPO 1612/1615 P6SM BKN020


METAR Board
Radar Display
Forecast Discussion
For situational awareness. Not to be used for flight planning purposes.